createdAt,value
2022-07-30T00:00:37.321Z,99296.91
2022-07-30T00:03:05.674Z,99273.22
2022-07-30T00:05:33.716Z,99278.47
2022-07-30T00:08:03.417Z,99285.16
2022-07-30T00:10:31.565Z,99287.31
2022-07-30T00:12:59.612Z,99278.50
2022-07-30T00:15:28.777Z,99294.81
2022-07-30T00:17:56.835Z,99283.59
2022-07-30T00:20:27.983Z,99301.13
2022-07-30T00:22:57.834Z,99287.44
2022-07-30T00:25:25.948Z,99294.66
2022-07-30T00:27:53.978Z,99287.72
2022-07-30T00:30:22.716Z,99286.03
2022-07-30T00:32:50.984Z,99282.44
2022-07-30T00:35:19.083Z,99289.47
2022-07-30T00:37:47.249Z,99283.81
2022-07-30T00:40:15.337Z,99290.94
2022-07-30T00:42:46.513Z,99292.25
2022-07-30T00:45:18.152Z,99302.00
2022-07-30T00:47:46.854Z,99294.00
2022-07-30T00:50:16.975Z,99275.09
2022-07-30T00:52:46.051Z,99283.06
2022-07-30T00:55:16.384Z,99286.38
2022-07-30T00:57:45.714Z,99280.25
2022-07-30T01:00:21.242Z,99287.28
2022-07-30T01:02:49.469Z,99285.53
2022-07-30T01:05:18.270Z,99278.94
2022-07-30T01:07:48.879Z,99276.66
2022-07-30T01:10:18.533Z,99279.28
2022-07-30T01:12:46.693Z,99279.88
2022-07-30T01:15:17.798Z,99282.09
2022-07-30T01:17:53.025Z,99264.28
2022-07-30T01:20:35.851Z,99267.88
2022-07-30T01:23:11.989Z,99275.84
2022-07-30T01:25:52.701Z,99280.41
2022-07-30T01:28:26.974Z,99276.03
2022-07-30T01:30:57.536Z,99251.19
2022-07-30T01:33:28.448Z,99272.56
2022-07-30T01:35:58.194Z,99280.00
2022-07-30T01:38:33.635Z,99274.66
2022-07-30T01:41:06.338Z,99280.50
2022-07-30T01:43:36.601Z,99278.31
2022-07-30T01:46:05.953Z,99271.66
2022-07-30T01:48:38.078Z,99274.59
2022-07-30T01:51:08.288Z,99255.19
2022-07-30T01:53:40.229Z,99268.59
2022-07-30T01:56:11.397Z,99274.06
2022-07-30T01:58:42.734Z,99278.47
2022-07-30T02:01:10.913Z,99282.06
2022-07-30T02:03:39.118Z,99271.47
2022-07-30T02:06:24.559Z,99256.97
2022-07-30T02:09:00.462Z,99271.00
2022-07-30T02:11:46.974Z,99265.75
2022-07-30T02:14:25.005Z,99276.53
2022-07-30T02:17:00.473Z,99288.00
2022-07-30T02:19:40.007Z,99283.88
2022-07-30T02:22:16.118Z,99275.03
2022-07-30T02:24:46.058Z,99286.28
2022-07-30T02:27:21.004Z,99283.31
2022-07-30T02:29:51.769Z,99280.22
2022-07-30T02:32:22.784Z,99275.69
2022-07-30T02:34:58.123Z,99261.22
2022-07-30T02:37:42.942Z,99272.16
2022-07-30T02:40:16.832Z,99255.94
2022-07-30T02:42:50.342Z,99275.59
2022-07-30T02:45:19.836Z,99271.91
2022-07-30T02:47:53.436Z,99257.16
2022-07-30T02:50:23.707Z,99266.31
2022-07-30T02:52:54.299Z,99255.25
2022-07-30T02:55:23.900Z,99268.16
2022-07-30T02:57:54.357Z,99268.34
2022-07-30T03:00:24.895Z,99248.63
2022-07-30T03:02:56.905Z,99256.63
2022-07-30T03:05:27.671Z,99267.97
2022-07-30T03:07:58.666Z,99266.84
2022-07-30T03:10:30.401Z,99262.66
2022-07-30T03:13:01.433Z,99264.41
2022-07-30T03:15:30.800Z,99268.97
2022-07-30T03:18:00.834Z,99266.97
2022-07-30T03:20:33.445Z,99262.78
2022-07-30T03:23:03.879Z,99261.97
2022-07-30T03:25:35.739Z,99265.97
2022-07-30T03:28:07.264Z,99223.16
2022-07-30T03:30:35.679Z,99255.09
2022-07-30T03:33:04.189Z,99252.47
2022-07-30T03:35:33.349Z,99253.69
2022-07-30T03:38:03.520Z,99257.84
2022-07-30T03:40:32.097Z,99258.22
2022-07-30T03:43:00.765Z,99261.22
2022-07-30T03:45:29.230Z,99262.56
2022-07-30T03:47:58.464Z,99266.88
2022-07-30T03:50:27.135Z,99264.19
2022-07-30T03:52:55.991Z,99255.25
2022-07-30T03:55:24.588Z,99277.31
2022-07-30T03:57:52.790Z,99277.63
2022-07-30T04:00:21.010Z,99277.38
2022-07-30T04:02:49.287Z,99274.16
2022-07-30T04:05:17.997Z,99285.34
2022-07-30T04:07:46.406Z,99285.56
2022-07-30T04:10:16.265Z,99280.13
2022-07-30T04:12:45.415Z,99277.06
2022-07-30T04:16:40.438Z,99279.72
2022-07-30T04:18:05.560Z,99286.78
2022-07-30T04:20:42.396Z,99281.16
2022-07-30T04:23:11.561Z,99283.94
2022-07-30T04:25:41.657Z,99286.56
2022-07-30T04:28:12.414Z,99284.50
2022-07-30T04:30:41.937Z,99265.91
2022-07-30T04:35:56.591Z,99237.75
2022-07-30T04:38:51.275Z,99272.13
2022-07-30T04:41:26.457Z,99261.91
2022-07-30T04:43:56.540Z,99250.59
2022-07-30T04:46:28.921Z,99265.97
2022-07-30T04:49:05.364Z,99258.19
2022-07-30T04:51:47.978Z,99274.31
2022-07-30T04:54:18.945Z,99265.56
2022-07-30T04:56:56.904Z,99260.19
2022-07-30T04:59:25.957Z,99262.41
2022-07-30T05:01:58.387Z,99269.47
2022-07-30T05:04:27.530Z,99260.34
2022-07-30T05:06:57.965Z,99258.25
2022-07-30T05:09:26.829Z,99263.13
2022-07-30T05:12:10.977Z,99260.97
2022-07-30T05:14:44.388Z,99253.69
2022-07-30T05:17:15.955Z,99249.41
2022-07-30T05:19:45.062Z,99271.78
2022-07-30T05:22:16.409Z,99258.81
2022-07-30T05:24:44.427Z,99270.16
2022-07-30T05:27:15.016Z,99274.19
2022-07-30T05:29:43.133Z,99265.00
2022-07-30T05:32:11.629Z,99289.00
2022-07-30T05:34:39.839Z,99288.19
2022-07-30T05:37:09.996Z,99275.25
2022-07-30T05:40:02.166Z,99283.34
2022-07-30T05:42:29.516Z,99282.53
2022-07-30T05:44:57.714Z,99280.38
2022-07-30T05:47:25.841Z,99278.19
2022-07-30T05:49:54.206Z,99283.25
2022-07-30T05:52:22.410Z,99276.44
2022-07-30T05:54:50.323Z,99284.50
2022-07-30T05:57:18.494Z,99277.16
2022-07-30T05:59:48.097Z,99280.81
2022-07-30T06:02:16.150Z,99279.44
2022-07-30T06:04:46.114Z,99280.53
2022-07-30T06:07:14.548Z,99284.25
2022-07-30T06:12:29.668Z,99279.59
2022-07-30T06:14:59.318Z,99277.09
2022-07-30T06:17:27.291Z,99273.69
2022-07-30T06:19:55.595Z,99268.28
2022-07-30T06:22:26.105Z,99275.59
2022-07-30T06:24:54.375Z,99265.72
2022-07-30T06:27:24.290Z,99261.34
2022-07-30T06:29:53.228Z,99267.38
2022-07-30T06:32:21.198Z,99268.81
2022-07-30T06:34:55.255Z,99259.94
2022-07-30T06:38:06.436Z,99264.97
2022-07-30T06:40:19.921Z,99258.13
2022-07-30T06:42:47.959Z,99258.88
2022-07-30T06:45:16.183Z,99257.78
2022-07-30T06:47:44.383Z,99266.06
2022-07-30T06:50:12.386Z,99254.81
2022-07-30T06:52:41.122Z,99247.34
2022-07-30T06:55:11.238Z,99250.50
2022-07-30T06:57:42.494Z,99257.97
2022-07-30T07:00:11.507Z,99240.22
2022-07-30T07:02:40.114Z,99254.47
2022-07-30T07:05:08.636Z,99252.16
2022-07-30T07:07:42.319Z,99236.56
2022-07-30T07:10:13.364Z,99247.22
2022-07-30T07:12:41.463Z,99246.44
2022-07-30T07:15:10.460Z,99238.31
2022-07-30T07:17:40.131Z,99226.63
2022-07-30T07:20:08.791Z,99239.81
2022-07-30T07:22:36.891Z,99237.94
2022-07-30T07:25:06.604Z,99233.63
2022-07-30T07:27:34.842Z,99233.09
2022-07-30T07:30:06.307Z,99223.44
2022-07-30T07:32:37.074Z,99227.84
2022-07-30T07:35:06.289Z,99236.22
2022-07-30T07:37:34.806Z,99215.25
2022-07-30T07:40:06.987Z,99231.00
2022-07-30T07:42:35.009Z,99239.13
2022-07-30T07:45:03.211Z,99223.78
2022-07-30T07:47:32.572Z,99228.94
2022-07-30T07:50:00.512Z,99228.97
2022-07-30T07:52:28.580Z,99225.81
2022-07-30T07:54:57.646Z,99234.44
2022-07-30T07:57:25.678Z,99234.22
2022-07-30T07:59:56.066Z,99231.25
2022-07-30T08:02:24.473Z,99221.25
2022-07-30T08:04:52.538Z,99238.47
2022-07-30T08:07:20.672Z,99236.28
2022-07-30T08:09:50.903Z,99236.03
2022-07-30T08:12:18.946Z,99236.34
2022-07-30T08:14:47.139Z,99237.72
2022-07-30T08:17:16.131Z,99239.34
2022-07-30T08:19:44.351Z,99243.19
2022-07-30T08:22:12.807Z,99235.66
2022-07-30T08:24:42.104Z,99238.28
2022-07-30T08:27:10.452Z,99238.22
2022-07-30T08:29:38.863Z,99231.25
2022-07-30T08:32:10.226Z,99233.38
2022-07-30T08:34:38.459Z,99216.59
2022-07-30T08:37:06.582Z,99236.97
2022-07-30T08:39:35.677Z,99231.00
2022-07-30T08:42:06.730Z,99231.22
2022-07-30T08:44:36.962Z,99229.06
2022-07-30T08:47:24.740Z,99231.78
2022-07-30T08:49:53.639Z,99235.78
2022-07-30T08:52:22.282Z,99240.63
2022-07-30T08:54:51.545Z,99222.00
2022-07-30T08:57:19.828Z,99240.03
2022-07-30T08:59:59.615Z,99228.75
2022-07-30T09:02:34.495Z,99222.88
2022-07-30T09:05:02.689Z,99233.69
2022-07-30T09:07:50.944Z,99223.56
2022-07-30T09:10:19.710Z,99227.38
2022-07-30T09:12:47.914Z,99226.00
2022-07-30T09:15:18.599Z,99210.84
2022-07-30T09:17:59.533Z,99223.22
2022-07-30T09:20:34.972Z,99212.19
2022-07-30T09:23:06.019Z,99218.13
2022-07-30T09:25:34.145Z,99225.09
2022-07-30T09:28:02.529Z,99217.56
2022-07-30T09:30:52.767Z,99215.97
2022-07-30T09:33:45.337Z,99215.69
2022-07-30T09:36:19.522Z,99207.91
2022-07-30T09:38:55.117Z,99214.72
2022-07-30T09:41:42.117Z,99206.91
2022-07-30T09:44:11.146Z,99198.28
2022-07-30T09:46:48.310Z,99204.47
2022-07-30T09:49:25.515Z,99203.59
2022-07-30T09:51:57.223Z,99195.53
2022-07-30T09:54:51.848Z,99210.03
2022-07-30T09:57:25.675Z,99204.13
2022-07-30T10:00:16.546Z,99193.53
2022-07-30T10:02:48.498Z,99194.06
2022-07-30T10:05:16.811Z,99198.41
2022-07-30T10:07:53.220Z,99187.44
2022-07-30T10:10:27.486Z,99188.81
2022-07-30T10:13:08.986Z,99195.53
2022-07-30T10:15:50.475Z,99202.28
2022-07-30T10:18:19.385Z,99208.50
2022-07-30T10:20:47.905Z,99205.00
2022-07-30T10:23:18.422Z,99199.84
2022-07-30T10:25:55.191Z,99198.75
2022-07-30T10:28:25.386Z,99205.22
2022-07-30T10:30:54.791Z,99196.31
2022-07-30T10:33:35.263Z,99185.25
2022-07-30T10:36:08.985Z,99184.44
2022-07-30T10:38:44.361Z,99193.84
2022-07-30T10:41:43.016Z,99188.69
2022-07-30T10:44:25.204Z,99186.81
2022-07-30T10:47:07.113Z,99190.56
2022-07-30T10:49:40.997Z,99184.66
2022-07-30T10:52:10.671Z,99189.72
2022-07-30T10:54:41.591Z,99172.47
2022-07-30T10:57:22.945Z,99145.44
2022-07-30T11:00:04.526Z,99186.09
2022-07-30T11:02:35.952Z,99176.94
2022-07-30T11:05:27.335Z,99174.75
2022-07-30T11:08:32.118Z,99176.38
2022-07-30T11:11:19.197Z,99176.13
2022-07-30T11:14:00.890Z,99176.63
2022-07-30T11:16:35.231Z,99178.78
2022-07-30T11:22:28.207Z,99176.31
2022-07-30T11:24:57.155Z,99179.25
2022-07-30T11:27:51.771Z,99169.00
2022-07-30T11:30:23.475Z,99176.25
2022-07-30T11:32:52.888Z,99170.28
2022-07-30T11:35:34.466Z,99168.69
2022-07-30T11:38:09.680Z,99166.25
2022-07-30T11:41:00.238Z,99171.06
2022-07-30T11:43:37.181Z,99170.50
2022-07-30T11:46:16.278Z,99177.50
2022-07-30T11:49:09.084Z,99164.84
2022-07-30T11:51:47.226Z,99160.50
2022-07-30T11:54:15.685Z,99161.59
2022-07-30T11:57:00.729Z,99161.56
2022-07-30T11:59:31.978Z,99169.03
2022-07-30T12:02:02.690Z,99164.19
2022-07-30T12:04:31.376Z,99154.78
2022-07-30T12:07:00.546Z,99156.91
2022-07-30T12:09:30.576Z,99164.69
2022-07-30T12:11:59.672Z,99161.75
2022-07-30T12:14:41.208Z,99156.66
2022-07-30T12:17:15.074Z,99170.13
2022-07-30T12:19:50.797Z,99160.66
2022-07-30T12:22:20.404Z,99167.84
2022-07-30T12:24:48.655Z,99180.94
2022-07-30T12:27:19.019Z,99181.97
2022-07-30T12:29:47.115Z,99180.00
2022-07-30T12:32:15.391Z,99182.44
2022-07-30T12:34:58.906Z,99192.63
2022-07-30T12:37:27.087Z,99186.41
2022-07-30T12:40:15.237Z,99200.31
2022-07-30T12:42:54.241Z,99197.06
2022-07-30T12:45:52.164Z,99198.41
2022-07-30T12:48:22.730Z,99197.84
2022-07-30T12:51:07.967Z,99196.69
2022-07-30T12:53:36.560Z,99199.63
2022-07-30T12:56:37.809Z,99202.56
2022-07-30T12:59:05.957Z,99204.44
2022-07-30T13:01:45.853Z,99201.19
2022-07-30T13:06:43.196Z,99209.69
2022-07-30T13:09:24.801Z,99197.78
2022-07-30T13:11:53.109Z,99204.22
2022-07-30T13:14:24.697Z,99222.88
2022-07-30T13:16:59.754Z,99210.69
2022-07-30T13:19:28.728Z,99220.53
2022-07-30T13:21:56.796Z,99204.78
2022-07-30T13:24:25.232Z,99218.50
2022-07-30T13:26:53.268Z,99215.44
2022-07-30T13:29:21.317Z,99213.19
2022-07-30T13:31:50.281Z,99209.06
2022-07-30T13:34:18.547Z,99198.44
2022-07-30T13:36:46.835Z,99209.91
2022-07-30T13:39:16.033Z,99201.34
2022-07-30T13:41:44.171Z,99209.97
2022-07-30T13:44:12.381Z,99210.66
2022-07-30T13:46:41.577Z,99211.41
2022-07-30T13:49:11.383Z,99216.91
2022-07-30T13:51:39.647Z,99215.78
2022-07-30T13:54:10.663Z,99216.75
2022-07-30T13:56:42.264Z,99219.28
2022-07-30T13:59:10.863Z,99205.94
2022-07-30T14:01:40.202Z,99207.94
2022-07-30T14:04:09.261Z,99220.53
2022-07-30T14:06:37.432Z,99219.84
2022-07-30T14:09:05.656Z,99217.66
2022-07-30T14:11:33.740Z,99207.69
2022-07-30T14:14:02.782Z,99214.31
2022-07-30T14:16:47.568Z,99227.13
2022-07-30T14:19:24.159Z,99225.38
2022-07-30T14:21:58.882Z,99221.72
2022-07-30T14:24:27.075Z,99219.75
2022-07-30T14:26:58.178Z,99228.22
2022-07-30T14:29:28.254Z,99226.50
2022-07-30T14:31:57.198Z,99212.25
2022-07-30T14:34:25.689Z,99214.09
2022-07-30T14:36:57.318Z,99216.69
2022-07-30T14:39:25.735Z,99225.88
2022-07-30T14:41:55.895Z,99215.78
2022-07-30T14:44:24.639Z,99215.88
2022-07-30T14:46:53.113Z,99228.31
2022-07-30T14:49:24.181Z,99224.00
2022-07-30T14:51:54.099Z,99222.63
2022-07-30T14:54:23.377Z,99219.94
2022-07-30T14:56:59.706Z,99229.94
2022-07-30T14:59:30.010Z,99193.66
2022-07-30T15:01:57.954Z,99221.53
2022-07-30T15:04:26.224Z,99209.44
2022-07-30T15:06:54.591Z,99201.38
2022-07-30T15:09:22.586Z,99218.38
2022-07-30T15:12:08.360Z,99224.34
2022-07-30T15:14:41.244Z,99221.56
2022-07-30T15:17:09.552Z,99227.56
2022-07-30T15:19:37.522Z,99222.91
2022-07-30T15:22:37.090Z,99215.22
2022-07-30T15:25:06.657Z,99216.94
2022-07-30T15:27:35.176Z,99211.78
2022-07-30T15:30:05.385Z,99215.28
2022-07-30T15:32:52.099Z,99202.56
2022-07-30T15:35:21.785Z,99213.00
2022-07-30T15:37:49.751Z,99220.88
2022-07-30T15:40:17.949Z,99214.56
2022-07-30T15:42:46.874Z,99224.84
2022-07-30T15:45:17.675Z,99205.09
2022-07-30T15:47:47.496Z,99219.00
2022-07-30T15:50:17.730Z,99217.06
2022-07-30T15:52:46.471Z,99213.22
2022-07-30T15:55:15.010Z,99209.44
2022-07-30T15:57:46.271Z,99216.63
2022-07-30T16:00:14.938Z,99223.44
2022-07-30T16:02:44.315Z,99226.72
2022-07-30T16:05:14.135Z,99223.09
2022-07-30T16:07:44.050Z,99221.31
2022-07-30T16:10:12.381Z,99222.34
2022-07-30T16:12:45.179Z,99207.09
2022-07-30T16:15:14.355Z,99205.53
2022-07-30T16:17:44.639Z,99220.25
2022-07-30T16:20:13.376Z,99217.66
2022-07-30T16:22:41.606Z,99226.69
2022-07-30T16:25:10.256Z,99213.44
2022-07-30T16:27:38.641Z,99229.41
2022-07-30T16:30:07.396Z,99219.19
2022-07-30T16:32:35.762Z,99226.00
2022-07-30T16:35:04.310Z,99214.34
2022-07-30T16:37:32.523Z,99218.47
2022-07-30T16:40:00.627Z,99213.97
2022-07-30T16:42:28.946Z,99204.25
2022-07-30T16:44:57.102Z,99210.22
2022-07-30T16:47:25.103Z,99220.88
2022-07-30T16:49:53.396Z,99210.09
2022-07-30T16:52:21.671Z,99217.50
2022-07-30T16:54:54.979Z,99214.88
2022-07-30T16:57:23.372Z,99203.88
2022-07-30T16:59:51.521Z,99208.78
2022-07-30T17:02:19.558Z,99202.28
2022-07-30T17:04:48.673Z,99195.75
2022-07-30T17:07:16.949Z,99181.47
2022-07-30T17:09:45.040Z,99192.09
2022-07-30T17:12:23.277Z,99194.59
2022-07-30T17:14:54.076Z,99179.97
2022-07-30T17:17:23.588Z,99202.81
2022-07-30T17:19:51.975Z,99193.41
2022-07-30T17:22:20.153Z,99186.50
2022-07-30T17:24:48.270Z,99184.47
2022-07-30T17:30:03.872Z,99176.69
2022-07-30T17:32:32.474Z,99179.56
2022-07-30T17:35:00.752Z,99185.88
2022-07-30T17:37:28.991Z,99181.41
2022-07-30T17:40:27.387Z,99186.72
2022-07-30T17:42:47.315Z,99190.81
2022-07-30T17:45:15.546Z,99192.47
2022-07-30T17:47:43.769Z,99197.59
2022-07-30T17:50:12.027Z,99196.41
2022-07-30T17:52:41.856Z,99193.75
2022-07-30T17:55:13.072Z,99159.69
2022-07-30T17:57:41.360Z,99185.00
2022-07-30T18:00:11.280Z,99191.94
2022-07-30T18:02:39.657Z,99188.28
2022-07-30T18:05:09.231Z,99187.84
2022-07-30T18:07:38.484Z,99186.03
2022-07-30T18:10:07.839Z,99152.00
2022-07-30T18:12:36.056Z,99193.00
2022-07-30T18:15:07.337Z,99180.75
2022-07-30T18:17:36.126Z,99182.38
2022-07-30T18:20:04.885Z,99167.28
2022-07-30T18:22:33.031Z,99178.91
2022-07-30T18:25:01.252Z,99178.09
2022-07-30T18:27:30.798Z,99174.41
2022-07-30T18:29:59.225Z,99166.69
2022-07-30T18:32:27.268Z,99171.97
2022-07-30T18:34:55.470Z,99186.47
2022-07-30T18:37:23.634Z,99178.72
2022-07-30T18:39:51.877Z,99182.81
2022-07-30T18:42:19.852Z,99173.63
2022-07-30T18:44:48.357Z,99181.59
2022-07-30T18:47:16.500Z,99184.84
2022-07-30T18:49:44.649Z,99184.88
2022-07-30T18:52:12.983Z,99162.66
2022-07-30T18:54:40.977Z,99158.31
2022-07-30T18:57:14.160Z,99164.63
2022-07-30T18:59:43.835Z,99170.75
2022-07-30T19:02:12.096Z,99170.97
2022-07-30T19:04:40.131Z,99161.97
2022-07-30T19:07:10.142Z,99166.69
2022-07-30T19:09:37.845Z,99164.03
2022-07-30T19:12:06.472Z,99161.78
2022-07-30T19:14:35.434Z,99164.03
2022-07-30T19:17:13.591Z,99170.75
2022-07-30T19:19:46.230Z,99166.88
2022-07-30T19:22:14.301Z,99183.00
2022-07-30T19:24:42.383Z,99178.09
2022-07-30T19:27:14.275Z,99169.72
2022-07-30T19:29:42.902Z,99171.97
2022-07-30T19:32:10.990Z,99165.59
2022-07-30T19:34:41.234Z,99177.63
2022-07-30T19:37:09.399Z,99152.34
2022-07-30T19:39:37.521Z,99169.69
2022-07-30T19:42:28.162Z,99162.75
2022-07-30T19:44:58.735Z,99157.25
2022-07-30T19:47:38.397Z,99147.03
2022-07-30T19:50:08.992Z,99161.91
2022-07-30T19:52:37.909Z,99153.56
2022-07-30T19:55:17.235Z,99169.44
2022-07-30T19:57:56.052Z,99150.25
2022-07-30T20:00:24.771Z,99140.88
2022-07-30T20:02:53.554Z,99165.56
2022-07-30T20:05:24.673Z,99167.19
2022-07-30T20:07:53.557Z,99151.69
2022-07-30T20:10:23.979Z,99139.88
2022-07-30T20:12:51.967Z,99152.91
2022-07-30T20:15:21.246Z,99158.00
2022-07-30T20:17:51.221Z,99160.84
2022-07-30T20:20:26.380Z,99153.09
2022-07-30T20:22:55.072Z,99152.19
2022-07-30T20:25:23.114Z,99155.94
2022-07-30T20:27:51.125Z,99153.84
2022-07-30T20:30:25.403Z,99147.66
2022-07-30T20:32:53.749Z,99156.34
2022-07-30T20:35:26.052Z,99155.94
2022-07-30T20:37:56.642Z,99150.66
2022-07-30T20:40:26.627Z,99146.97
2022-07-30T20:42:56.118Z,99143.72
2022-07-30T20:45:25.840Z,99152.47
2022-07-30T20:48:16.956Z,99143.47
2022-07-30T20:50:49.357Z,99151.00
2022-07-30T20:53:17.798Z,99152.63
2022-07-30T20:55:46.905Z,99148.16
2022-07-30T20:58:16.551Z,99158.53
2022-07-30T21:00:49.720Z,99137.47
2022-07-30T21:03:22.378Z,99160.56
2022-07-30T21:05:52.735Z,99160.13
2022-07-30T21:08:25.280Z,99156.84
2022-07-30T21:10:55.107Z,99134.63
2022-07-30T21:13:25.020Z,99148.28
2022-07-30T21:16:02.191Z,99148.47
2022-07-30T21:18:34.219Z,99151.50
2022-07-30T21:21:05.541Z,99140.13
2022-07-30T21:23:34.225Z,99133.78
2022-07-30T21:26:06.988Z,99137.63
2022-07-30T21:28:40.263Z,99155.16
2022-07-30T21:31:09.429Z,99152.91
2022-07-30T21:33:38.508Z,99148.38
2022-07-30T21:36:10.736Z,99151.63
2022-07-30T21:38:43.094Z,99142.88
2022-07-30T21:41:14.175Z,99128.41
2022-07-30T21:43:44.942Z,99135.53
2022-07-30T21:46:14.811Z,99144.56
2022-07-30T21:48:46.488Z,99137.81
2022-07-30T21:51:16.443Z,99132.34
2022-07-30T21:53:46.499Z,99136.44
2022-07-30T21:56:16.376Z,99127.63
2022-07-30T21:58:45.758Z,99145.97
2022-07-30T22:01:25.109Z,99148.41
2022-07-30T22:04:03.246Z,99138.22
2022-07-30T22:06:42.899Z,99133.75
2022-07-30T22:09:19.324Z,99122.53
2022-07-30T22:12:09.245Z,99117.66
2022-07-30T22:14:40.900Z,99117.66
2022-07-30T22:17:22.828Z,99130.06
2022-07-30T22:19:52.751Z,99131.25
2022-07-30T22:22:26.679Z,99126.97
2022-07-30T22:25:00.119Z,99122.03
2022-07-30T22:30:18.494Z,99127.66
2022-07-30T22:32:49.249Z,99119.00
2022-07-30T22:35:21.363Z,99105.16
2022-07-30T22:38:04.221Z,99155.13
2022-07-30T22:40:32.222Z,99144.97
2022-07-30T22:43:04.239Z,99151.47
2022-07-30T22:45:48.363Z,99141.00
2022-07-30T22:48:19.906Z,99151.81
2022-07-30T22:50:53.754Z,99140.97
2022-07-30T22:54:11.343Z,99151.66
2022-07-30T22:56:15.463Z,99131.00
2022-07-30T22:58:44.670Z,99138.94
2022-07-30T23:01:12.661Z,99141.78
2022-07-30T23:03:42.141Z,99153.03
2022-07-30T23:06:14.698Z,99155.47
2022-07-30T23:08:44.581Z,99150.53
2022-07-30T23:11:12.660Z,99143.59
2022-07-30T23:12:31.671Z,99116.09
2022-07-30T23:13:40.823Z,99167.88
2022-07-30T23:16:09.069Z,99157.31
2022-07-30T23:18:40.417Z,99158.31
2022-07-30T23:21:08.457Z,99161.78
2022-07-30T23:23:38.144Z,99149.13
2022-07-30T23:26:06.522Z,99143.03
2022-07-30T23:28:35.107Z,99149.00
2022-07-30T23:31:04.296Z,99156.38
2022-07-30T23:33:33.378Z,99147.66
2022-07-30T23:36:01.627Z,99156.66
2022-07-30T23:38:29.752Z,99151.16
2022-07-30T23:41:04.744Z,99164.00
2022-07-30T23:43:33.349Z,99151.97
2022-07-30T23:46:01.458Z,99151.00
2022-07-30T23:48:30.848Z,99159.16
2022-07-30T23:50:59.790Z,99154.44
2022-07-30T23:53:27.781Z,99159.38
2022-07-30T23:55:55.887Z,99148.75
2022-07-30T23:58:46.651Z,99160.44
